createdAt,value
2018-06-18T00:00:15.694Z,73.69
2018-06-18T00:01:15.660Z,73.21
2018-06-18T00:02:15.426Z,73.69
2018-06-18T00:03:15.696Z,73.69
2018-06-18T00:04:15.662Z,73.02
2018-06-18T00:05:15.673Z,73.31
2018-06-18T00:06:15.660Z,73.02
2018-06-18T00:07:15.666Z,73.6
2018-06-18T00:08:15.412Z,73.6
2018-06-18T00:09:15.671Z,72.92
2018-06-18T00:10:15.677Z,73.11
2018-06-18T00:11:15.421Z,73.21
2018-06-18T00:12:15.415Z,73.41
2018-06-18T00:13:15.417Z,73.21
2018-06-18T00:14:15.680Z,73.02
2018-06-18T00:15:15.695Z,73.11
2018-06-18T00:16:15.427Z,73.21
2018-06-18T00:17:15.419Z,73.11
2018-06-18T00:18:15.426Z,73.21
2018-06-18T00:19:15.429Z,72.92
2018-06-18T00:20:15.707Z,73.11
2018-06-18T00:21:15.684Z,73.11
2018-06-18T00:22:15.682Z,73.02
2018-06-18T00:23:15.684Z,73.02
2018-06-18T00:24:15.683Z,72.92
2018-06-18T00:25:15.707Z,73.02
2018-06-18T00:26:15.430Z,73.21
2018-06-18T00:27:15.941Z,73.21
2018-06-18T00:28:15.684Z,73.41
2018-06-18T00:29:15.442Z,73.21
2018-06-18T00:30:15.435Z,72.83
2018-06-18T00:31:15.445Z,73.31
2018-06-18T00:32:15.696Z,73.21
2018-06-18T00:33:15.455Z,73.21
2018-06-18T00:34:15.444Z,73.31
2018-06-18T00:35:15.691Z,73.21
2018-06-18T00:36:15.710Z,73.21
2018-06-18T00:37:15.697Z,73.31
2018-06-18T00:38:15.707Z,73.21
2018-06-18T00:39:15.701Z,72.83
2018-06-18T00:40:15.453Z,73.21
2018-06-18T00:41:15.708Z,73.41
2018-06-18T00:42:15.703Z,73.11
2018-06-18T00:43:15.704Z,72.83
2018-06-18T00:44:15.704Z,73.11
2018-06-18T00:45:15.458Z,73.11
2018-06-18T00:46:15.706Z,73.11
2018-06-18T00:47:15.707Z,73.02
2018-06-18T00:48:15.708Z,73.02
2018-06-18T00:49:15.468Z,73.11
2018-06-18T00:50:15.713Z,73.21
2018-06-18T00:51:15.766Z,72.92
2018-06-18T00:52:15.459Z,73.11
2018-06-18T00:53:15.464Z,73.31
2018-06-18T00:54:15.720Z,73.21
2018-06-18T00:55:15.718Z,73.5
2018-06-18T00:56:15.724Z,73.6
2018-06-18T00:57:20.276Z,73.6
2018-06-18T00:58:15.724Z,73.41
2018-06-18T00:59:15.725Z,73.41
2018-06-18T01:00:15.722Z,73.41
2018-06-18T01:01:15.728Z,73.79
2018-06-18T01:02:15.721Z,74.08
2018-06-18T01:03:15.730Z,73.88
2018-06-18T01:04:15.733Z,73.88
2018-06-18T01:05:15.476Z,74.04
2018-06-18T01:06:15.479Z,73.88
2018-06-18T01:07:15.734Z,73.98
2018-06-18T01:08:15.732Z,74.37
2018-06-18T01:09:15.737Z,74.37
2018-06-18T01:10:15.736Z,74.46
2018-06-18T01:11:15.738Z,74.46
2018-06-18T01:12:15.744Z,74.37
2018-06-18T01:13:15.740Z,74.27
2018-06-18T01:14:15.495Z,74.37
2018-06-18T01:15:15.744Z,74.17
2018-06-18T01:16:15.743Z,73.88
2018-06-18T01:17:15.737Z,73.88
2018-06-18T01:18:15.843Z,73.88
2018-06-18T01:19:15.753Z,73.98
2018-06-18T01:20:15.495Z,73.98
2018-06-18T01:21:15.496Z,73.69
2018-06-18T01:22:15.753Z,73.94
2018-06-18T01:23:15.759Z,73.98
2018-06-18T01:24:15.502Z,73.98
2018-06-18T01:25:15.754Z,74.08
2018-06-18T01:26:15.762Z,73.79
2018-06-18T01:27:15.505Z,73.56
2018-06-18T01:28:15.754Z,73.21
2018-06-18T01:29:15.504Z,73.21
2018-06-18T01:30:15.775Z,73.31
2018-06-18T01:31:15.507Z,73.21
2018-06-18T01:32:15.768Z,73.85
2018-06-18T01:33:15.762Z,73.94
2018-06-18T01:34:15.763Z,73.85
2018-06-18T01:35:15.771Z,73.66
2018-06-18T01:36:15.768Z,73.18
2018-06-18T01:37:15.766Z,73.37
2018-06-18T01:38:15.518Z,74.04
2018-06-18T01:39:15.768Z,73.75
2018-06-18T01:40:15.764Z,73.94
2018-06-18T01:41:15.771Z,73.18
2018-06-18T01:42:15.529Z,73.66
2018-06-18T01:43:15.520Z,72.89
2018-06-18T01:44:15.787Z,73.56
2018-06-18T01:45:15.773Z,74.13
2018-06-18T01:46:15.773Z,74.08
2018-06-18T01:47:15.795Z,73.31
2018-06-18T01:48:15.778Z,73.31
2018-06-18T01:49:15.788Z,73.6
2018-06-18T01:50:15.531Z,73.46
2018-06-18T01:51:15.779Z,73.46
2018-06-18T01:52:15.531Z,73.85
2018-06-18T01:53:15.783Z,73.85
2018-06-18T01:54:15.794Z,74.43
2018-06-18T01:55:15.820Z,73.75
2018-06-18T01:56:15.785Z,73.85
2018-06-18T01:57:15.549Z,73.85
2018-06-18T01:58:16.737Z,73.85
2018-06-18T01:59:15.800Z,74.43
2018-06-18T02:00:15.792Z,74.43
2018-06-18T02:01:15.791Z,74.13
2018-06-18T02:02:15.794Z,74.13
2018-06-18T02:03:15.795Z,74.04
2018-06-18T02:04:15.539Z,74.52
2018-06-18T02:05:15.816Z,73.85
2018-06-18T02:06:15.795Z,73.94
2018-06-18T02:07:15.818Z,74.04
2018-06-18T02:08:15.813Z,73.94
2018-06-18T02:09:15.801Z,74.33
2018-06-18T02:10:15.810Z,73.75
2018-06-18T02:11:15.548Z,73.85
2018-06-18T02:12:15.799Z,73.85
2018-06-18T02:13:15.799Z,73.94
2018-06-18T02:14:15.551Z,74.04
2018-06-18T02:15:15.560Z,73.94
2018-06-18T02:16:15.571Z,73.75
2018-06-18T02:17:15.807Z,73.85
2018-06-18T02:18:15.807Z,73.94
2018-06-18T02:19:15.807Z,73.85
2018-06-18T02:20:15.811Z,74.04
2018-06-18T02:21:15.558Z,73.85
2018-06-18T02:22:15.810Z,73.85
2018-06-18T02:23:15.821Z,73.94
2018-06-18T02:24:15.821Z,73.94
2018-06-18T02:25:15.818Z,73.75
2018-06-18T02:26:15.565Z,73.27
2018-06-18T02:27:15.569Z,73.46
2018-06-18T02:28:16.078Z,73.27
2018-06-18T02:29:15.568Z,73.85
2018-06-18T02:30:15.831Z,74.04
2018-06-18T02:31:15.868Z,73.94
2018-06-18T02:32:15.828Z,73.66
2018-06-18T02:33:15.828Z,73.75
2018-06-18T02:34:15.603Z,73.94
2018-06-18T02:35:15.835Z,73.66
2018-06-18T02:36:15.835Z,73.75
2018-06-18T02:37:15.837Z,73.66
2018-06-18T02:38:15.831Z,73.75
2018-06-18T02:39:15.833Z,73.66
2018-06-18T02:40:15.576Z,73.56
2018-06-18T02:41:15.837Z,73.75
2018-06-18T02:42:15.837Z,73.66
2018-06-18T02:43:15.588Z,73.75
2018-06-18T02:44:15.831Z,73.46
2018-06-18T02:45:15.837Z,74.04
2018-06-18T02:46:15.837Z,73.85
2018-06-18T02:47:15.595Z,73.85
2018-06-18T02:48:15.848Z,74.23
2018-06-18T02:49:15.606Z,74.04
2018-06-18T02:50:15.843Z,74.62
2018-06-18T02:51:15.847Z,74.62
2018-06-18T02:52:15.596Z,75.2
2018-06-18T02:53:15.849Z,75.1
2018-06-18T02:54:15.858Z,75.2
2018-06-18T02:55:15.855Z,75
2018-06-18T02:56:15.855Z,74.71
2018-06-18T02:57:15.846Z,74.9
2018-06-18T02:58:15.854Z,75.48
2018-06-18T02:59:15.850Z,75
2018-06-18T03:00:15.606Z,75.1
2018-06-18T03:01:15.846Z,75.06
2018-06-18T03:02:15.857Z,75
2018-06-18T03:03:15.854Z,74.87
2018-06-18T03:04:15.856Z,75.06
2018-06-18T03:05:15.858Z,74.81
2018-06-18T03:06:15.872Z,74.77
2018-06-18T03:07:15.862Z,74.68
2018-06-18T03:08:15.861Z,74.9
2018-06-18T03:09:15.621Z,75.06
2018-06-18T03:10:15.872Z,75
2018-06-18T03:11:15.864Z,74.58
2018-06-18T03:12:15.883Z,74.68
2018-06-18T03:13:15.608Z,74.01
2018-06-18T03:14:15.648Z,73.94
2018-06-18T03:15:15.635Z,74.48
2018-06-18T03:16:15.626Z,74.39
2018-06-18T03:17:15.881Z,74.43
2018-06-18T03:18:15.627Z,74.87
2018-06-18T03:19:15.649Z,74.81
2018-06-18T03:20:15.626Z,74.81
2018-06-18T03:21:15.894Z,74.58
2018-06-18T03:22:15.628Z,74.62
2018-06-18T03:23:15.639Z,74.62
2018-06-18T03:24:15.641Z,74.52
2018-06-18T03:25:15.623Z,75.1
2018-06-18T03:26:15.631Z,74.52
2018-06-18T03:27:15.880Z,74.52
2018-06-18T03:28:15.882Z,74.71
2018-06-18T03:29:15.878Z,74.52
2018-06-18T03:30:15.918Z,74.81
2018-06-18T03:31:15.883Z,74.81
2018-06-18T03:32:15.891Z,74.13
2018-06-18T03:33:15.630Z,74.43
2018-06-18T03:34:15.641Z,74.23
2018-06-18T03:35:15.631Z,74.04
2018-06-18T03:36:15.881Z,74.13
2018-06-18T03:37:15.950Z,73.75
2018-06-18T03:38:15.883Z,73.66
2018-06-18T03:39:15.883Z,73.85
2018-06-18T03:40:15.884Z,73.85
2018-06-18T03:41:15.887Z,73.85
2018-06-18T03:42:15.893Z,73.85
2018-06-18T03:43:15.893Z,73.66
2018-06-18T03:44:15.884Z,73.85
2018-06-18T03:45:15.674Z,74.13
2018-06-18T03:46:15.640Z,74.43
2018-06-18T03:47:15.640Z,74.33
2018-06-18T03:48:15.893Z,74.71
2018-06-18T03:49:15.893Z,74.71
2018-06-18T03:50:15.900Z,74.62
2018-06-18T03:51:15.894Z,74.62
2018-06-18T03:52:15.895Z,74.81
2018-06-18T03:53:15.643Z,74.43
2018-06-18T03:54:15.643Z,74.71
2018-06-18T03:55:15.644Z,74.81
2018-06-18T03:56:15.946Z,74.62
2018-06-18T03:57:15.641Z,74.33
2018-06-18T03:58:15.903Z,74.13
2018-06-18T03:59:15.898Z,73.85
2018-06-18T04:00:15.653Z,73.94
2018-06-18T04:01:15.654Z,73.85
2018-06-18T04:02:15.903Z,73.66
2018-06-18T04:03:15.671Z,73.85
2018-06-18T04:04:15.657Z,74.04
2018-06-18T04:05:15.976Z,73.66
2018-06-18T04:06:15.676Z,74.62
2018-06-18T04:07:15.663Z,73.75
2018-06-18T04:08:15.910Z,73.85
2018-06-18T04:09:15.907Z,73.56
2018-06-18T04:10:15.916Z,73.18
2018-06-18T04:11:15.912Z,73.18
2018-06-18T04:12:16.041Z,72.22
2018-06-18T04:13:15.912Z,72.5
2018-06-18T04:14:15.915Z,72.5
2018-06-18T04:15:15.912Z,72.41
2018-06-18T04:16:15.920Z,71.48
2018-06-18T04:17:15.919Z,72.25
2018-06-18T04:18:15.920Z,71.1
2018-06-18T04:19:15.920Z,71.29
2018-06-18T04:20:15.927Z,70.9
2018-06-18T04:21:15.680Z,70.43
2018-06-18T04:22:15.922Z,70.23
2018-06-18T04:23:15.930Z,70.23
2018-06-18T04:24:15.924Z,71
2018-06-18T04:25:15.925Z,70.81
2018-06-18T04:26:15.677Z,70.81
2018-06-18T04:27:15.940Z,70.72
2018-06-18T04:28:15.930Z,71.19
2018-06-18T04:29:15.934Z,71
2018-06-18T04:30:15.685Z,70.65
2018-06-18T04:31:15.685Z,70.33
2018-06-18T04:32:15.682Z,70.56
2018-06-18T04:33:15.941Z,70.43
2018-06-18T04:34:15.937Z,70.17
2018-06-18T04:35:15.687Z,70.56
2018-06-18T04:36:15.688Z,70.56
2018-06-18T04:37:15.945Z,69.98
2018-06-18T04:38:15.969Z,70.23
2018-06-18T04:39:15.939Z,69.85
2018-06-18T04:40:15.946Z,70.14
2018-06-18T04:41:15.952Z,70.07
2018-06-18T04:42:15.693Z,69.6
2018-06-18T04:43:15.954Z,70.17
2018-06-18T04:44:15.702Z,70.94
2018-06-18T04:45:16.031Z,70.27
2018-06-18T04:46:15.961Z,69.15
2018-06-18T04:47:15.956Z,67.9
2018-06-18T04:48:15.705Z,66.58
2018-06-18T04:49:15.707Z,64.56
2018-06-18T04:50:15.960Z,63.06
2018-06-18T04:51:15.968Z,61.35
2018-06-18T04:52:15.969Z,59.27
2018-06-18T04:53:15.718Z,57.56
2018-06-18T04:54:15.720Z,56.56
2018-06-18T04:55:15.732Z,54.46
2018-06-18T04:56:15.986Z,51.9
2018-06-18T04:57:15.985Z,50.38
2018-06-18T04:58:15.734Z,48.57
2018-06-18T04:59:16.142Z,48.37
2018-06-18T05:00:16.003Z,48.76
2018-06-18T05:01:16.000Z,47.24
2018-06-18T05:02:16.009Z,45.88
2018-06-18T05:03:16.023Z,47.11
2018-06-18T05:04:16.021Z,47.96
2018-06-18T05:05:16.025Z,48.61
2018-06-18T05:06:15.792Z,49.46
2018-06-18T05:07:15.795Z,49.85
2018-06-18T05:08:15.800Z,50.98
2018-06-18T05:09:16.846Z,52.4
2018-06-18T05:10:16.052Z,52.76
2018-06-18T05:11:16.056Z,53.53
2018-06-18T05:12:16.056Z,53.34
2018-06-18T05:13:16.058Z,53.05
2018-06-18T05:14:15.816Z,53.53
2018-06-18T05:15:16.068Z,53.83
2018-06-18T05:16:16.072Z,52.93
2018-06-18T05:17:16.085Z,53.41
2018-06-18T05:18:16.088Z,54.66
2018-06-18T05:19:16.086Z,54.28
2018-06-18T05:20:16.093Z,55.02
2018-06-18T05:21:16.101Z,54.18
2018-06-18T05:22:16.099Z,53.8
2018-06-18T05:23:16.099Z,54.06
2018-06-18T05:24:16.654Z,54.76
2018-06-18T05:25:16.110Z,55.31
2018-06-18T05:26:16.124Z,55.02
2018-06-18T05:27:15.864Z,55.22
2018-06-18T05:28:15.866Z,54.83
2018-06-18T05:29:15.878Z,54.86
2018-06-18T05:30:16.128Z,54.74
2018-06-18T05:31:16.130Z,55.15
2018-06-18T05:32:16.143Z,54.86
2018-06-18T05:33:16.144Z,53.99
2018-06-18T05:34:16.138Z,54.09
2018-06-18T05:35:16.154Z,53.61
2018-06-18T05:36:16.154Z,53.41
2018-06-18T05:37:16.156Z,53.31
2018-06-18T05:38:16.160Z,53.31
2018-06-18T05:39:16.159Z,53.89
2018-06-18T05:40:16.168Z,53.99
2018-06-18T05:41:16.168Z,54.47
2018-06-18T05:42:16.227Z,54.96
2018-06-18T05:43:16.173Z,54.28
2018-06-18T05:44:16.180Z,54.76
2018-06-18T05:45:15.932Z,54.21
2018-06-18T05:46:16.193Z,54.02
2018-06-18T05:47:16.192Z,53.83
2018-06-18T05:48:16.199Z,53.83
2018-06-18T05:49:16.224Z,53.44
2018-06-18T05:50:16.213Z,53.63
2018-06-18T05:51:16.431Z,53.34
2018-06-18T05:52:16.213Z,53.15
2018-06-18T05:53:15.964Z,53.34
2018-06-18T05:54:16.232Z,53.73
2018-06-18T05:55:15.962Z,53.44
2018-06-18T05:56:15.995Z,52.76
2018-06-18T05:57:16.240Z,52.76
2018-06-18T05:58:16.258Z,52.19
2018-06-18T05:59:16.245Z,52.47
2018-06-18T06:00:16.241Z,53.41
2018-06-18T06:01:16.253Z,53.41
2018-06-18T06:02:15.998Z,53.7
2018-06-18T06:03:16.256Z,55.24
2018-06-18T06:04:16.252Z,55.41
2018-06-18T06:05:16.038Z,55.7
2018-06-18T06:06:16.274Z,55.99
2018-06-18T06:07:16.033Z,55.12
2018-06-18T06:08:16.275Z,54.74
2018-06-18T06:09:16.276Z,54.83
2018-06-18T06:10:16.294Z,55.05
2018-06-18T06:11:16.292Z,53.99
2018-06-18T06:12:16.037Z,54.38
2018-06-18T06:13:16.033Z,54.57
2018-06-18T06:23:58.422Z,54.38
2018-06-18T06:24:58.437Z,53.61
2018-06-18T06:25:58.425Z,53.99
2018-06-18T06:26:58.667Z,53.63
2018-06-18T06:27:58.425Z,53.41
2018-06-18T06:28:58.680Z,54.02
2018-06-18T06:29:58.668Z,53.44
2018-06-18T06:30:58.670Z,53.53
2018-06-18T06:31:58.671Z,53.44
2018-06-18T06:32:58.679Z,53.63
2018-06-18T06:33:58.679Z,53.53
2018-06-18T06:34:58.431Z,53.25
2018-06-18T06:35:58.688Z,52.76
2018-06-18T06:36:58.451Z,53.15
2018-06-18T06:37:58.698Z,52.37
2018-06-18T06:38:58.705Z,52.57
2018-06-18T06:39:58.705Z,52.19
2018-06-18T06:40:58.469Z,51.89
2018-06-18T06:41:58.451Z,51.32
2018-06-18T06:42:58.453Z,52.09
2018-06-18T06:43:58.462Z,52.4
2018-06-18T06:44:58.469Z,52.21
2018-06-18T06:45:58.464Z,51.34
2018-06-18T06:46:58.733Z,51.05
2018-06-18T06:47:58.467Z,51.95
2018-06-18T06:48:58.856Z,52.04
2018-06-18T06:49:58.490Z,52.5
2018-06-18T06:50:58.733Z,52.98
2018-06-18T06:51:58.735Z,53.17
2018-06-18T06:52:58.501Z,53.27
2018-06-18T06:53:58.773Z,53.47
2018-06-18T06:54:58.503Z,53.56
2018-06-18T06:55:58.883Z,54.05
2018-06-18T06:56:58.510Z,53.47
2018-06-18T06:57:58.514Z,53.66
2018-06-18T06:58:58.767Z,53.75
2018-06-18T06:59:58.769Z,53.95
2018-06-18T07:00:58.774Z,53.56
2018-06-18T07:01:58.777Z,53.47
2018-06-18T07:02:58.554Z,53.95
2018-06-18T07:03:58.537Z,54.43
2018-06-18T07:04:58.783Z,54.11
2018-06-18T07:05:58.550Z,54.21
2018-06-18T07:06:58.800Z,54.02
2018-06-18T07:07:58.877Z,54.5
2018-06-18T07:08:58.798Z,54.02
2018-06-18T07:09:58.807Z,53.34
2018-06-18T07:10:58.569Z,53.95
2018-06-18T07:11:58.824Z,53.85
2018-06-18T07:12:58.822Z,53.27
2018-06-18T07:13:58.823Z,54.24
2018-06-18T07:14:58.823Z,54.62
2018-06-18T07:15:58.828Z,54.82
2018-06-18T07:16:58.589Z,55.08
2018-06-18T07:17:58.829Z,56.04
2018-06-18T07:18:58.848Z,55.27
2018-06-18T07:19:58.598Z,55.36
2018-06-18T07:20:58.843Z,54.79
2018-06-18T07:21:58.608Z,55.76
2018-06-18T07:22:58.869Z,55.36
2018-06-18T07:23:58.856Z,55.66
2018-06-18T07:24:58.861Z,55.66
2018-06-18T07:25:58.881Z,55.78
2018-06-18T07:26:58.889Z,55.46
2018-06-18T07:27:58.619Z,55.85
2018-06-18T07:28:58.875Z,55.01
2018-06-18T07:29:58.639Z,54.43
2018-06-18T07:30:59.015Z,56.07
2018-06-18T07:31:58.910Z,56.04
2018-06-18T07:32:58.891Z,55.66
2018-06-18T07:33:58.640Z,54.53
2018-06-18T07:34:58.900Z,54.84
2018-06-18T07:35:58.664Z,55.04
2018-06-18T07:36:58.906Z,53.69
2018-06-18T07:37:58.672Z,54.07
2018-06-18T07:38:58.663Z,53.69
2018-06-18T07:39:58.667Z,53.39
2018-06-18T07:40:58.677Z,53.59
2018-06-18T07:41:58.919Z,53.39
2018-06-18T07:42:58.689Z,53.39
2018-06-18T07:43:58.943Z,53.39
2018-06-18T07:44:58.685Z,53.81
2018-06-18T07:45:58.965Z,52.75
2018-06-18T07:46:58.945Z,51.87
2018-06-18T07:47:58.718Z,52.67
2018-06-18T07:48:58.984Z,51.42
2018-06-18T07:49:58.706Z,51.42
2018-06-18T07:50:58.979Z,51.42
2018-06-18T07:51:58.973Z,51.32
2018-06-18T07:52:58.719Z,52
2018-06-18T07:53:58.740Z,52.48
2018-06-18T07:54:58.733Z,51.13
2018-06-18T07:55:58.733Z,50.28
2018-06-18T07:56:58.992Z,50.09
2018-06-18T07:57:58.792Z,49.05
2018-06-18T07:58:58.745Z,49.92
2018-06-18T07:59:59.007Z,49.73
2018-06-18T08:00:59.013Z,48.49
2018-06-18T08:01:59.011Z,48.49
2018-06-18T08:02:58.781Z,47.24
2018-06-18T08:03:59.034Z,46.84
2018-06-18T08:04:59.037Z,48.88
2018-06-18T08:05:58.782Z,48.2
2018-06-18T08:06:59.039Z,48.39
2018-06-18T08:07:58.793Z,48.3
2018-06-18T08:08:58.800Z,48.71
2018-06-18T08:09:58.906Z,48.03
2018-06-18T08:10:59.056Z,46.77
2018-06-18T08:11:59.070Z,47.55
2018-06-18T08:12:59.078Z,47.26
2018-06-18T08:13:58.826Z,47.16
2018-06-18T08:14:58.878Z,46.6
2018-06-18T08:15:59.085Z,45.73
2018-06-18T08:16:59.104Z,45.25
2018-06-18T08:17:58.846Z,44.78
2018-06-18T08:18:58.853Z,44.78
2018-06-18T08:19:59.111Z,45.83
2018-06-18T08:20:58.884Z,45.73
2018-06-18T08:21:58.868Z,46.77
2018-06-18T08:22:59.126Z,46.89
2018-06-18T08:23:59.126Z,48.13
2018-06-18T08:24:59.134Z,46.39
2018-06-18T08:25:59.138Z,46.22
2018-06-18T08:26:59.203Z,46.8
2018-06-18T08:27:59.151Z,46.12
2018-06-18T08:28:59.154Z,44.42
2018-06-18T08:29:59.164Z,41.64
2018-06-18T08:30:58.912Z,41.77
2018-06-18T08:31:59.182Z,41.96
2018-06-18T08:32:59.177Z,41.67
2018-06-18T08:33:59.186Z,40.91
2018-06-18T08:34:59.282Z,40.91
2018-06-18T08:35:59.009Z,41.2
2018-06-18T08:36:59.201Z,42.91
2018-06-18T08:37:59.207Z,44.23
2018-06-18T08:38:58.961Z,46.41
2018-06-18T08:39:59.239Z,46.58
2018-06-18T08:40:58.988Z,47.26
2018-06-18T08:41:59.237Z,48.69
2018-06-18T08:42:58.986Z,48.76
2018-06-18T08:43:58.992Z,49.44
2018-06-18T08:44:59.256Z,50.76
2018-06-18T08:45:59.258Z,52.07
2018-06-18T08:46:59.008Z,54.1
2018-06-18T08:47:59.270Z,53.81
2018-06-18T08:48:59.019Z,52.45
2018-06-18T08:49:59.280Z,50.74
2018-06-18T08:50:59.029Z,50.02
2018-06-18T08:51:59.297Z,49.46
2018-06-18T08:52:59.059Z,48.2
2018-06-18T08:53:59.063Z,48.01
2018-06-18T08:54:59.304Z,48.49
2018-06-18T08:55:59.315Z,49.44
2018-06-18T08:56:59.312Z,50.31
2018-06-18T08:57:59.421Z,51.83
2018-06-18T08:58:59.356Z,52.19
2018-06-18T08:59:59.330Z,52.09
2018-06-18T09:00:59.101Z,52.36
2018-06-18T09:01:59.359Z,53.42
2018-06-18T09:02:59.356Z,54.07
2018-06-18T09:03:59.093Z,53.39
2018-06-18T09:04:59.368Z,52.94
2018-06-18T09:05:59.109Z,51.68
2018-06-18T09:06:59.367Z,50.81
2018-06-18T09:07:59.376Z,50.62
2018-06-18T09:08:59.122Z,51.49
2018-06-18T09:09:59.122Z,51.32
2018-06-18T09:10:59.126Z,49.8
2018-06-18T09:11:59.392Z,49.82
2018-06-18T09:12:59.392Z,48.69
2018-06-18T09:13:59.417Z,48.11
2018-06-18T09:14:59.410Z,48.11
2018-06-18T09:15:59.179Z,47.94
2018-06-18T09:16:59.413Z,47.64
2018-06-18T09:17:59.167Z,48.49
2018-06-18T09:18:59.174Z,48.59
2018-06-18T09:19:59.431Z,49.54
2018-06-18T09:20:59.191Z,50.28
2018-06-18T09:21:59.181Z,50.76
2018-06-18T09:22:59.187Z,52.19
2018-06-18T09:23:59.472Z,52.17
2018-06-18T09:24:59.458Z,52.75
2018-06-18T09:25:59.247Z,52.81
2018-06-18T09:26:59.474Z,53.59
2018-06-18T09:27:59.210Z,52.53
2018-06-18T09:28:59.467Z,52.91
2018-06-18T09:29:59.474Z,53.49
2018-06-18T09:30:59.230Z,52.23
2018-06-18T09:31:59.312Z,50.43
2018-06-18T09:32:59.236Z,49.29
2018-06-18T09:33:59.241Z,49.39
2018-06-18T09:34:59.495Z,48.93
2018-06-18T09:35:59.506Z,46.92
2018-06-18T09:36:59.520Z,45.86
2018-06-18T09:37:59.267Z,46.25
2018-06-18T09:38:59.532Z,46.15
2018-06-18T09:39:59.518Z,46.53
2018-06-18T09:40:59.523Z,47.99
2018-06-18T09:41:59.527Z,48.76
2018-06-18T09:42:59.533Z,46.84
2018-06-18T09:43:59.531Z,46.26
2018-06-18T09:44:59.543Z,46.66
2018-06-18T09:45:59.557Z,46.75
2018-06-18T09:46:59.554Z,47.04
2018-06-18T09:47:59.369Z,47.89
2018-06-18T09:48:59.559Z,47.69
2018-06-18T09:49:59.563Z,47.48
2018-06-18T09:50:59.316Z,48.44
2018-06-18T09:51:59.588Z,49.39
2018-06-18T09:52:59.594Z,50.07
2018-06-18T09:53:59.590Z,51.23
2018-06-18T09:54:59.593Z,50.71
2018-06-18T09:55:59.352Z,50.45
2018-06-18T09:56:59.368Z,49.77
2018-06-18T09:57:59.350Z,49.49
2018-06-18T09:58:59.606Z,49.29
2018-06-18T09:59:59.613Z,49.65
2018-06-18T10:00:59.385Z,50.23
2018-06-18T10:01:59.622Z,50.62
2018-06-18T10:02:59.626Z,50.71
2018-06-18T10:03:59.633Z,50.62
2018-06-18T10:04:59.387Z,49.87
2018-06-18T10:05:59.642Z,50.16
2018-06-18T10:06:59.398Z,49.29
2018-06-18T10:07:59.642Z,49.22
2018-06-18T10:08:59.399Z,48.74
2018-06-18T10:09:59.653Z,47.77
2018-06-18T10:10:59.653Z,46.92
2018-06-18T10:11:59.662Z,46.83
2018-06-18T10:12:59.412Z,46.84
2018-06-18T10:13:59.418Z,45.71
2018-06-18T10:14:59.680Z,47.16
2018-06-18T10:15:59.696Z,45.13
2018-06-18T10:16:59.447Z,46.29
2018-06-18T10:17:59.687Z,45.44
2018-06-18T10:18:59.451Z,43.7
2018-06-18T10:19:59.694Z,43.13
2018-06-18T10:20:59.450Z,44.1
2018-06-18T10:21:59.701Z,45.34
2018-06-18T10:22:59.707Z,45.83
2018-06-18T10:53:29.847Z,46.63
2018-06-18T10:54:29.604Z,48.57
2018-06-18T10:55:29.856Z,48.37
2018-06-18T10:56:29.849Z,47.31
2018-06-18T10:57:29.851Z,46.17
2018-06-18T10:58:29.864Z,46.08
2018-06-18T10:59:29.857Z,45.98
2018-06-18T11:00:29.882Z,45.51
2018-06-18T11:01:29.859Z,44.93
2018-06-18T11:02:29.611Z,44.84
2018-06-18T11:03:29.867Z,43.96
2018-06-18T11:04:29.940Z,44.84
2018-06-18T11:05:29.733Z,44.06
2018-06-18T11:06:29.878Z,45.71
2018-06-18T11:07:29.632Z,46.29
2018-06-18T11:08:29.879Z,46.97
2018-06-18T11:09:29.649Z,47.24
2018-06-18T11:10:29.894Z,46.36
2018-06-18T11:11:29.898Z,46.17
2018-06-18T11:12:29.647Z,47.24
2018-06-18T11:13:29.910Z,47.31
2018-06-18T11:14:29.672Z,47.21
2018-06-18T11:15:30.004Z,47.96
2018-06-18T11:16:29.908Z,48.54
2018-06-18T11:17:30.627Z,48.25
2018-06-18T11:18:29.941Z,48.06
2018-06-18T11:19:29.931Z,47.31
2018-06-18T11:20:29.973Z,46.9
2018-06-18T11:21:29.691Z,46.03
2018-06-18T11:22:29.948Z,45.74
2018-06-18T11:23:29.707Z,45.54
2018-06-18T11:24:29.771Z,45.45
2018-06-18T11:25:29.710Z,45.54
2018-06-18T11:26:30.348Z,45.93
2018-06-18T11:27:29.976Z,45.18
2018-06-18T11:28:30.223Z,44.79
2018-06-18T11:29:29.968Z,44.81
2018-06-18T11:30:29.978Z,44.89
2018-06-18T11:31:29.979Z,45.37
2018-06-18T11:32:29.780Z,45.86
2018-06-18T11:33:29.992Z,46.05
2018-06-18T11:34:29.989Z,47.21
2018-06-18T11:35:30.040Z,46.05
2018-06-18T11:36:29.799Z,47.24
2018-06-18T11:37:30.012Z,45.59
2018-06-18T11:38:29.763Z,45.2
2018-06-18T11:39:30.376Z,47.62
2018-06-18T11:40:30.061Z,46.66
2018-06-18T11:41:29.773Z,45.42
2018-06-18T11:42:30.053Z,44.45
2018-06-18T11:43:30.098Z,43.89
2018-06-18T11:44:29.784Z,43.7
2018-06-18T11:45:30.044Z,44.96
2018-06-18T11:46:30.050Z,43.02
2018-06-18T11:47:30.055Z,43.89
2018-06-18T11:48:30.084Z,43.99
2018-06-18T11:49:30.066Z,43.5
2018-06-18T11:50:30.080Z,44.16
2018-06-18T11:51:30.075Z,45.13
2018-06-18T11:52:29.876Z,44.84
2018-06-18T11:53:29.888Z,45.03
2018-06-18T11:54:30.087Z,45.2
2018-06-18T11:55:30.095Z,45.4
2018-06-18T11:56:29.837Z,45.01
2018-06-18T11:57:30.100Z,45.2
2018-06-18T11:58:30.280Z,45.4
2018-06-18T11:59:30.101Z,46.17
2018-06-18T12:00:30.140Z,47.43
2018-06-18T12:01:30.278Z,46.36
2018-06-18T12:02:29.865Z,46.75
2018-06-18T12:03:29.885Z,44.84
2018-06-18T12:04:30.148Z,44.54
2018-06-18T12:05:29.888Z,44.37
2018-06-18T12:06:29.895Z,44.74
2018-06-18T12:07:30.158Z,44.84
2018-06-18T12:08:29.897Z,46.09
2018-06-18T12:09:29.974Z,44.84
2018-06-18T12:10:29.974Z,45.51
2018-06-18T12:11:29.907Z,45.03
2018-06-18T12:12:30.192Z,44.84
2018-06-18T12:13:30.196Z,45.32
2018-06-18T12:14:30.205Z,46.09
2018-06-18T12:15:29.925Z,46.67
2018-06-18T12:16:30.183Z,46.41
2018-06-18T12:17:30.193Z,47.96
2018-06-18T12:18:30.202Z,44.57
2018-06-18T12:19:30.199Z,43.41
2018-06-18T12:20:29.950Z,44.37
2018-06-18T12:21:29.973Z,44.01
2018-06-18T12:22:30.210Z,43.23
2018-06-18T12:23:29.990Z,42.36
2018-06-18T12:24:30.229Z,43.41
2018-06-18T12:25:29.978Z,44.09
2018-06-18T12:26:30.243Z,44.93
2018-06-18T12:27:30.255Z,44.84
2018-06-18T12:28:30.248Z,44.54
2018-06-18T12:29:29.994Z,44.93
2018-06-18T12:30:30.299Z,43.79
2018-06-18T12:31:29.999Z,43.02
2018-06-18T12:32:30.260Z,42.34
2018-06-18T12:33:30.271Z,43.02
2018-06-18T12:34:30.058Z,43
2018-06-18T12:35:30.037Z,43.79
2018-06-18T12:36:30.282Z,44.26
2018-06-18T12:37:30.031Z,43.87
2018-06-18T12:38:30.305Z,43.77
2018-06-18T12:39:30.293Z,43.77
2018-06-18T12:40:30.046Z,43.77
2018-06-18T12:41:30.591Z,43.96
2018-06-18T12:42:30.323Z,43.89
2018-06-18T12:43:30.070Z,42.44
2018-06-18T12:44:30.062Z,43.82
2018-06-18T12:45:30.325Z,43.23
2018-06-18T12:46:30.080Z,43.62
2018-06-18T12:47:30.332Z,44.09
2018-06-18T12:48:30.347Z,44.18
2018-06-18T12:49:30.333Z,44.76
2018-06-18T12:50:30.341Z,45.15
2018-06-18T12:51:30.108Z,45.13
2018-06-18T12:52:30.346Z,45.51
2018-06-18T12:53:31.743Z,44.93
2018-06-18T12:54:30.112Z,45.22
2018-06-18T12:55:30.377Z,44.84
2018-06-18T12:56:30.370Z,44.93
2018-06-18T12:57:30.119Z,44.86
2018-06-18T12:58:30.948Z,44.54
2018-06-18T12:59:30.139Z,46.09
2018-06-18T13:00:30.134Z,45.22
2018-06-18T13:01:30.401Z,44.74
2018-06-18T13:02:30.398Z,45.71
2018-06-18T13:03:30.589Z,44.84
2018-06-18T13:04:30.427Z,45.13
2018-06-18T13:05:30.174Z,45.42
2018-06-18T13:06:30.423Z,45.59
2018-06-18T13:07:30.175Z,45.59
2018-06-18T13:08:30.424Z,45.88
2018-06-18T13:09:30.477Z,46.26
2018-06-18T13:10:30.192Z,45.88
2018-06-18T13:11:30.185Z,44.81
2018-06-18T13:12:30.191Z,44.62
2018-06-18T13:13:30.197Z,45.59
2018-06-18T13:14:30.205Z,45.71
2018-06-18T13:15:30.454Z,45.61
2018-06-18T13:16:30.461Z,45.51
2018-06-18T13:17:30.460Z,44.57
2018-06-18T13:18:30.218Z,43.79
2018-06-18T13:19:30.473Z,44.59
2018-06-18T13:20:30.496Z,46.94
2018-06-18T13:21:30.483Z,42.29
2018-06-18T13:22:30.488Z,41.51
2018-06-18T13:23:30.489Z,41.61
2018-06-18T13:24:30.504Z,42.09
2018-06-18T13:25:30.530Z,41.97
2018-06-18T13:26:30.505Z,41.97
2018-06-18T13:27:30.668Z,41.88
2018-06-18T13:28:30.526Z,42.36
2018-06-18T13:29:30.521Z,42.36
2018-06-18T13:30:30.581Z,42.55
2018-06-18T13:31:30.527Z,43.91
2018-06-18T13:32:30.280Z,43.91
2018-06-18T13:33:30.547Z,43.99